Time;durP1;ratioP1;P1;durP2;ratioP2;P2;SDS_P1;SDS_P2;PMS_P1;PMS_P2;Temp;Humidity;BMP_temperature;BMP_pressure;BME280_temperature;BME280_humidity;BME280_pressure;Samples;Min_cycle;Max_cycle;Signal;HPM_P1;HPM_P2
2022/12/01 00:00:57;;;;;;;42.58;30.60;;;;;;;;;;5032608;28;20056;-67
2022/12/01 00:03:22;;;;;;;39.10;28.92;;;;;;;;;;5045693;28;20039;-68
2022/12/01 00:05:56;;;;;;;44.00;30.23;;;;;;;;;;5032905;28;20030;-67
2022/12/01 00:08:21;;;;;;;42.83;29.23;;;;;;;;;;5034234;28;20060;-67
2022/12/01 00:10:46;;;;;;;41.63;28.98;;;;;;;;;;5037733;28;20475;-67
2022/12/01 00:13:12;;;;;;;40.67;28.58;;;;;;;;;;5038316;28;20391;-67
2022/12/01 00:15:37;;;;;;;51.15;34.30;;;;;;;;;;5032434;28;20014;-67
2022/12/01 00:18:04;;;;;;;55.45;34.65;;;;;;;;;;5034312;28;20025;-67
2022/12/01 00:20:31;;;;;;;50.70;32.33;;;;;;;;;;5051172;28;20021;-67
2022/12/01 00:22:56;;;;;;;51.17;33.05;;;;;;;;;;5051031;28;20805;-68
2022/12/01 00:25:22;;;;;;;57.78;34.83;;;;;;;;;;5051536;28;20025;-67
2022/12/01 00:27:48;;;;;;;46.75;34.83;;;;;;;;;;5035945;28;20140;-68
2022/12/01 00:30:14;;;;;;;54.35;35.70;;;;;;;;;;5038250;28;20051;-68
2022/12/01 00:32:39;;;;;;;53.70;33.33;;;;;;;;;;5047688;28;20455;-67
2022/12/01 00:35:05;;;;;;;55.07;36.23;;;;;;;;;;5051566;28;20071;-68
2022/12/01 00:37:31;;;;;;;59.53;38.63;;;;;;;;;;5050104;28;20307;-67
2022/12/01 00:39:56;;;;;;;55.40;37.45;;;;;;;;;;5050588;28;20033;-67
2022/12/01 00:42:22;;;;;;;58.97;37.47;;;;;;;;;;5064107;28;20040;-67
2022/12/01 00:44:47;;;;;;;51.10;34.75;;;;;;;;;;5048554;28;20667;-67
2022/12/01 00:47:12;;;;;;;55.75;35.60;;;;;;;;;;5050074;28;20111;-68
2022/12/01 00:49:38;;;;;;;50.55;36.17;;;;;;;;;;5049994;28;20025;-67
2022/12/01 00:52:03;;;;;;;55.28;37.63;;;;;;;;;;5044252;28;20128;-67
2022/12/01 00:54:30;;;;;;;63.15;38.75;;;;;;;;;;5028289;28;20096;-68
2022/12/01 00:56:56;;;;;;;64.47;38.10;;;;;;;;;;5032182;28;20047;-68
2022/12/01 00:59:21;;;;;;;56.88;36.05;;;;;;;;;;5027288;28;20020;-68
2022/12/01 01:01:48;;;;;;;68.38;38.05;;;;;;;;;;5030360;28;20038;-68
2022/12/01 01:04:13;;;;;;;62.65;37.05;;;;;;;;;;5030001;28;20135;-68
2022/12/01 01:06:38;;;;;;;52.00;35.13;;;;;;;;;;5029849;28;20480;-67
2022/12/01 01:09:04;;;;;;;59.15;37.40;;;;;;;;;;5030309;28;20021;-68
2022/12/01 01:11:29;;;;;;;58.65;38.90;;;;;;;;;;5029164;28;20021;-67
2022/12/01 01:13:54;;;;;;;55.92;34.67;;;;;;;;;;5031575;28;20529;-68
2022/12/01 01:16:20;;;;;;;62.13;37.95;;;;;;;;;;5031222;28;20053;-67
2022/12/01 01:18:45;;;;;;;59.90;36.72;;;;;;;;;;5045223;28;20025;-68
2022/12/01 01:21:12;;;;;;;70.60;38.53;;;;;;;;;;5050354;28;20032;-68
2022/12/01 01:23:37;;;;;;;59.00;37.42;;;;;;;;;;5050052;28;20071;-67
2022/12/01 01:26:04;;;;;;;63.20;38.92;;;;;;;;;;5048432;28;20794;-68
2022/12/01 01:28:30;;;;;;;72.03;41.45;;;;;;;;;;5048492;28;20028;-67
2022/12/01 01:30:55;;;;;;;63.47;41.03;;;;;;;;;;5048151;28;20033;-68
2022/12/01 01:33:20;;;;;;;68.93;38.42;;;;;;;;;;5043768;28;20035;-67
2022/12/01 01:35:45;;;;;;;60.17;37.95;;;;;;;;;;5048042;28;20111;-68
2022/12/01 01:38:10;;;;;;;46.10;33.03;;;;;;;;;;5052591;28;20064;-68
2022/12/01 01:40:41;;;;;;;70.28;38.17;;;;;;;;;;5060830;28;20377;-67
2022/12/01 01:43:12;;;;;;;69.13;39.83;;;;;;;;;;5051232;28;20697;-68
2022/12/01 01:45:37;;;;;;;67.93;39.28;;;;;;;;;;5040939;28;20108;-68
2022/12/01 01:48:03;;;;;;;61.53;39.70;;;;;;;;;;5030548;28;20495;-67
2022/12/01 01:50:28;;;;;;;62.90;38.92;;;;;;;;;;5051183;28;20840;-68
2022/12/01 01:52:57;;;;;;;63.05;37.90;;;;;;;;;;5049284;28;20025;-68
2022/12/01 01:55:23;;;;;;;62.10;36.65;;;;;;;;;;5037394;28;20086;-68
2022/12/01 01:57:48;;;;;;;60.17;37.85;;;;;;;;;;5046847;28;20028;-68
2022/12/01 02:00:15;;;;;;;55.75;34.75;;;;;;;;;;5044962;28;20025;-68
2022/12/01 02:02:44;;;;;;;63.58;39.42;;;;;;;;;;5065821;28;20032;-68
2022/12/01 02:05:29;;;;;;;53.80;36.53;;;;;;;;;;5055047;28;20701;-68
2022/12/01 02:07:56;;;;;;;59.95;37.13;;;;;;;;;;5038245;28;20049;-67
2022/12/01 02:10:23;;;;;;;57.72;36.83;;;;;;;;;;5039903;28;20495;-67
2022/12/01 02:12:51;;;;;;;53.00;35.13;;;;;;;;;;5029266;28;20052;-67
2022/12/01 02:15:20;;;;;;;63.13;34.75;;;;;;;;;;5036161;28;20025;-67
2022/12/01 02:17:58;;;;;;;66.00;39.17;;;;;;;;;;5060339;28;20016;-68
2022/12/01 02:20:39;;;;;;;65.90;36.63;;;;;;;;;;5045860;28;20643;-67
2022/12/01 02:23:13;;;;;;;73.75;39.25;;;;;;;;;;5042427;28;20025;-67
2022/12/01 02:25:38;;;;;;;;;;;;;;;;;;5029670;28;20044;-68
2022/12/01 02:28:12;;;;;;;77.55;37.53;;;;;;;;;;5029040;28;19909;-67
2022/12/01 02:30:40;;;;;;;77.22;41.25;;;;;;;;;;5029537;28;20029;-67
2022/12/01 02:33:22;;;;;;;60.35;37.83;;;;;;;;;;5030042;28;20108;-67
2022/12/01 02:35:51;;;;;;;78.43;41.38;;;;;;;;;;5055969;28;20036;-68
2022/12/01 02:38:19;;;;;;;65.78;38.47;;;;;;;;;;5031219;28;20119;-67
2022/12/01 02:41:03;;;;;;;73.80;43.70;;;;;;;;;;5055251;28;20094;-68
2022/12/01 02:43:40;;;;;;;71.27;41.57;;;;;;;;;;5046192;28;20035;-68
2022/12/01 02:46:14;;;;;;;70.18;42.03;;;;;;;;;;5047499;28;20044;-68
2022/12/01 02:48:41;;;;;;;76.63;44.28;;;;;;;;;;5047160;28;20020;-68
2022/12/01 02:51:13;;;;;;;71.88;41.42;;;;;;;;;;5061295;28;20028;-67
2022/12/01 02:53:38;;;;;;;80.72;43.95;;;;;;;;;;5036640;28;20017;-67
2022/12/01 02:56:05;;;;;;;76.40;42.53;;;;;;;;;;5044897;28;20014;-68
2022/12/01 02:58:30;;;;;;;82.22;45.30;;;;;;;;;;5043803;28;20012;-68
2022/12/01 03:01:16;;;;;;;73.00;44.13;;;;;;;;;;5050584;28;20483;-68
2022/12/01 03:03:51;;;;;;;80.43;43.92;;;;;;;;;;5054036;28;20085;-67
2022/12/01 03:06:26;;;;;;;75.13;40.05;;;;;;;;;;5042697;28;20067;-67
2022/12/01 03:08:51;;;;;;;68.80;43.15;;;;;;;;;;5058786;28;20480;-67
2022/12/01 03:11:28;;;;;;;70.70;44.75;;;;;;;;;;5028572;28;20025;-68
2022/12/01 03:13:59;;;;;;;82.22;43.60;;;;;;;;;;5032035;28;20048;-67
2022/12/01 03:16:44;;;;;;;74.00;44.05;;;;;;;;;;5040549;28;20041;-67
2022/12/01 03:19:28;;;;;;;80.13;43.50;;;;;;;;;;5047903;28;20033;-67
2022/12/01 03:22:24;;;;;;;76.47;43.30;;;;;;;;;;5029445;28;20025;-67
2022/12/01 03:24:50;;;;;;;81.90;46.75;;;;;;;;;;5023918;28;20041;-67
2022/12/01 03:27:18;;;;;;;81.63;45.40;;;;;;;;;;5030004;28;20029;-68
2022/12/01 03:29:45;;;;;;;71.70;42.90;;;;;;;;;;5039278;28;20048;-67
2022/12/01 03:32:30;;;;;;;80.03;45.90;;;;;;;;;;5030795;28;20033;-68
2022/12/01 03:34:57;;;;;;;70.15;42.25;;;;;;;;;;5027270;28;20491;-67
2022/12/01 03:37:25;;;;;;;74.97;44.78;;;;;;;;;;5026970;28;20029;-67
2022/12/01 03:39:53;;;;;;;86.82;47.47;;;;;;;;;;5029167;28;20038;-68
2022/12/01 03:42:29;;;;;;;81.85;42.92;;;;;;;;;;5033537;28;20017;-67
2022/12/01 03:44:57;;;;;;;87.00;47.03;;;;;;;;;;5045791;28;20040;-67
2022/12/01 03:47:29;;;;;;;85.13;45.63;;;;;;;;;;5024809;28;20478;-67
2022/12/01 03:49:55;;;;;;;82.60;46.15;;;;;;;;;;5030832;28;20025;-67
2022/12/01 03:52:55;;;;;;;79.05;44.65;;;;;;;;;;5048315;28;20028;-67
2022/12/01 03:55:31;;;;;;;75.75;44.97;;;;;;;;;;5013441;28;20439;-67
2022/12/01 03:58:01;;;;;;;87.13;49.53;;;;;;;;;;5042794;28;20099;-68
2022/12/01 04:00:27;;;;;;;89.70;48.03;;;;;;;;;;5048186;28;20446;-67
2022/12/01 04:02:54;;;;;;;83.80;47.13;;;;;;;;;;5048140;28;20128;-68
2022/12/01 04:05:19;;;;;;;86.43;47.60;;;;;;;;;;5059724;28;20027;-67
2022/12/01 04:07:44;;;;;;;83.97;45.78;;;;;;;;;;5052642;28;20034;-67
2022/12/01 04:10:10;;;;;;;97.25;49.90;;;;;;;;;;5047805;28;20070;-67
2022/12/01 04:12:35;;;;;;;75.65;44.47;;;;;;;;;;5045734;28;20028;-67
2022/12/01 04:15:02;;;;;;;83.20;48.75;;;;;;;;;;5047606;28;20108;-68
2022/12/01 04:17:28;;;;;;;88.80;50.08;;;;;;;;;;5060372;28;20021;-67
2022/12/01 04:19:53;;;;;;;84.28;46.58;;;;;;;;;;5046947;28;20070;-67
2022/12/01 04:22:19;;;;;;;98.78;50.40;;;;;;;;;;5044677;28;20024;-68
2022/12/01 04:24:44;;;;;;;89.50;48.58;;;;;;;;;;5046567;28;20057;-67
2022/12/01 04:27:09;;;;;;;89.43;48.47;;;;;;;;;;5042755;28;20111;-67
2022/12/01 04:29:35;;;;;;;86.32;49.83;;;;;;;;;;5047295;28;20029;-67
2022/12/01 04:32:00;;;;;;;102.68;53.25;;;;;;;;;;5046671;28;20463;-67
2022/12/01 04:34:25;;;;;;;85.85;48.28;;;;;;;;;;5044187;28;20187;-68
2022/12/01 04:36:51;;;;;;;88.22;49.40;;;;;;;;;;5047320;28;20510;-68
2022/12/01 04:39:16;;;;;;;98.72;51.42;;;;;;;;;;5058438;28;20453;-68
2022/12/01 04:41:41;;;;;;;93.70;54.58;;;;;;;;;;5061639;28;20024;-67
2022/12/01 04:44:08;;;;;;;91.40;50.28;;;;;;;;;;5031342;28;20033;-68
2022/12/01 04:46:33;;;;;;;80.10;49.38;;;;;;;;;;5032692;28;20021;-68
2022/12/01 04:48:58;;;;;;;82.82;48.28;;;;;;;;;;5033632;28;20017;-68
2022/12/01 04:51:24;;;;;;;84.35;48.88;;;;;;;;;;5036516;28;20028;-67
2022/12/01 04:53:49;;;;;;;101.10;52.70;;;;;;;;;;5033812;28;20495;-67
2022/12/01 04:56:14;;;;;;;92.60;52.88;;;;;;;;;;5034689;28;20820;-68
2022/12/01 04:58:40;;;;;;;92.80;53.78;;;;;;;;;;5032648;28;20021;-69
2022/12/01 05:01:07;;;;;;;89.90;52.67;;;;;;;;;;5032916;28;20076;-68
2022/12/01 05:03:34;;;;;;;91.15;47.03;;;;;;;;;;5030069;28;20124;-68
2022/12/01 05:06:03;;;;;;;94.65;53.75;;;;;;;;;;5031632;28;20029;-69
2022/12/01 05:08:29;;;;;;;87.32;52.88;;;;;;;;;;5054957;28;20104;-67
2022/12/01 05:10:55;;;;;;;92.35;50.22;;;;;;;;;;5051138;28;20028;-67
2022/12/01 05:13:20;;;;;;;106.25;52.10;;;;;;;;;;5051587;28;20483;-68
2022/12/01 05:15:45;;;;;;;64.57;45.20;;;;;;;;;;5050077;28;20063;-67
2022/12/01 05:18:10;;;;;;;88.72;50.65;;;;;;;;;;5049819;28;20025;-68
2022/12/01 05:23:19;;;;;;;90.55;51.92;;;;;;;;;;5048838;28;20040;-67
2022/12/01 05:25:44;;;;;;;103.33;54.00;;;;;;;;;;5047547;28;20029;-68
2022/12/01 05:28:09;;;;;;;97.20;52.42;;;;;;;;;;5046741;28;20681;-68
2022/12/01 05:30:35;;;;;;;109.67;53.60;;;;;;;;;;5045266;28;20024;-68
2022/12/01 05:33:00;;;;;;;111.30;53.03;;;;;;;;;;5046028;28;20294;-68
2022/12/01 05:35:25;;;;;;;89.88;49.33;;;;;;;;;;5045522;28;20025;-68
2022/12/01 05:37:50;;;;;;;96.95;52.30;;;;;;;;;;5047462;28;20029;-68
2022/12/01 05:40:16;;;;;;;90.57;50.22;;;;;;;;;;5051194;28;20020;-67
2022/12/01 05:42:41;;;;;;;113.45;55.72;;;;;;;;;;5049789;28;20539;-67
2022/12/01 05:45:06;;;;;;;102.93;48.67;;;;;;;;;;5029351;28;20026;-67
2022/12/01 05:47:32;;;;;;;99.53;57.30;;;;;;;;;;5039569;28;20594;-67
2022/12/01 05:49:57;;;;;;;99.13;49.90;;;;;;;;;;5033252;28;20045;-68
2022/12/01 05:52:22;;;;;;;108.97;51.38;;;;;;;;;;5029968;28;20279;-68
2022/12/01 05:54:47;;;;;;;107.63;54.78;;;;;;;;;;5040271;28;20020;-67
2022/12/01 05:57:12;;;;;;;100.63;54.42;;;;;;;;;;5036738;28;20035;-67
2022/12/01 05:59:38;;;;;;;113.28;55.25;;;;;;;;;;5040943;28;20108;-67
2022/12/01 06:02:03;;;;;;;94.30;53.40;;;;;;;;;;5030421;28;20119;-67
2022/12/01 06:04:28;;;;;;;119.32;56.72;;;;;;;;;;5031675;28;20020;-67
2022/12/01 06:06:53;;;;;;;104.47;52.10;;;;;;;;;;5031492;28;20353;-67
2022/12/01 06:09:19;;;;;;;121.38;59.70;;;;;;;;;;5060704;28;20013;-67
2022/12/01 06:11:44;;;;;;;106.60;56.28;;;;;;;;;;5048981;28;20020;-67
2022/12/01 06:14:09;;;;;;;111.93;55.63;;;;;;;;;;5047915;28;20009;-67
2022/12/01 06:16:34;;;;;;;113.10;54.70;;;;;;;;;;5047757;28;20283;-67
2022/12/01 06:18:59;;;;;;;113.25;57.72;;;;;;;;;;5044759;28;20036;-67
2022/12/01 06:21:25;;;;;;;111.80;56.10;;;;;;;;;;5047549;28;20043;-67
2022/12/01 06:23:50;;;;;;;102.82;55.30;;;;;;;;;;5034955;28;20029;-67
2022/12/01 06:26:15;;;;;;;107.07;54.00;;;;;;;;;;5048015;28;20110;-67
2022/12/01 06:28:40;;;;;;;89.45;52.50;;;;;;;;;;5051774;28;20036;-67
2022/12/01 06:31:06;;;;;;;134.85;57.60;;;;;;;;;;5046338;28;20075;-67
2022/12/01 06:33:31;;;;;;;131.35;58.55;;;;;;;;;;5032252;28;20100;-66
2022/12/01 06:36:01;;;;;;;120.45;53.95;;;;;;;;;;5029945;28;20049;-67
2022/12/01 06:38:29;;;;;;;117.10;52.80;;;;;;;;;;5031877;28;20108;-67
2022/12/01 06:40:54;;;;;;;137.80;59.40;;;;;;;;;;5032515;28;20033;-66
2022/12/01 06:43:19;;;;;;;120.82;56.05;;;;;;;;;;5032661;28;20083;-67
2022/12/01 06:45:44;;;;;;;110.95;50.08;;;;;;;;;;5042488;28;20033;-67
2022/12/01 06:48:11;;;;;;;127.80;58.17;;;;;;;;;;5033224;28;20017;-67
2022/12/01 06:50:36;;;;;;;96.13;48.38;;;;;;;;;;5032925;28;20021;-67
2022/12/01 06:53:02;;;;;;;116.90;56.33;;;;;;;;;;5038671;28;20025;-67
2022/12/01 06:55:27;;;;;;;111.43;52.17;;;;;;;;;;5042711;28;20024;-67
2022/12/01 06:57:52;;;;;;;124.70;57.55;;;;;;;;;;5042676;28;20057;-67
2022/12/01 07:00:17;;;;;;;116.47;56.50;;;;;;;;;;5042533;28;20100;-67
2022/12/01 07:02:43;;;;;;;88.75;46.05;;;;;;;;;;5041795;28;20064;-67
2022/12/01 07:05:09;;;;;;;112.32;53.53;;;;;;;;;;5039379;28;20021;-67
2022/12/01 07:07:35;;;;;;;118.13;58.80;;;;;;;;;;5042564;28;20016;-67
2022/12/01 07:10:00;;;;;;;122.40;53.22;;;;;;;;;;5055737;28;20518;-67
2022/12/01 07:12:28;;;;;;;91.75;47.20;;;;;;;;;;5061997;28;20039;-68
2022/12/01 07:14:54;;;;;;;91.55;50.30;;;;;;;;;;5052211;28;20155;-67
2022/12/01 07:17:19;;;;;;;117.30;53.55;;;;;;;;;;5052316;28;20096;-66
2022/12/01 07:19:44;;;;;;;102.30;47.85;;;;;;;;;;5052130;28;20021;-68
2022/12/01 07:22:09;;;;;;;101.50;48.80;;;;;;;;;;5050693;28;20021;-67
2022/12/01 07:24:35;;;;;;;88.75;49.38;;;;;;;;;;5051175;28;20032;-67
2022/12/01 07:27:00;;;;;;;93.85;46.83;;;;;;;;;;5047622;28;20014;-67
2022/12/01 07:29:25;;;;;;;81.07;45.03;;;;;;;;;;5032449;28;20543;-68
2022/12/01 07:31:50;;;;;;;85.15;46.83;;;;;;;;;;5032437;28;20434;-67
2022/12/01 07:34:16;;;;;;;95.15;47.25;;;;;;;;;;5034317;28;20013;-68
2022/12/01 07:36:41;;;;;;;82.50;45.15;;;;;;;;;;5034135;28;20104;-67
2022/12/01 07:39:07;;;;;;;91.00;45.33;;;;;;;;;;5036023;28;20478;-67
2022/12/01 07:41:32;;;;;;;77.78;41.55;;;;;;;;;;5060858;28;20023;-67
2022/12/01 07:43:58;;;;;;;77.47;37.50;;;;;;;;;;5032313;28;20022;-67
2022/12/01 07:46:24;;;;;;;83.38;42.47;;;;;;;;;;5034182;28;20026;-67
2022/12/01 07:48:49;;;;;;;80.88;39.28;;;;;;;;;;5035610;28;20032;-67
2022/12/01 07:51:15;;;;;;;68.88;37.63;;;;;;;;;;5035137;28;20025;-67
2022/12/01 07:53:40;;;;;;;81.35;42.50;;;;;;;;;;5036374;28;20021;-69
2022/12/01 07:56:06;;;;;;;72.43;39.13;;;;;;;;;;5033530;28;20060;-68
2022/12/01 07:58:31;;;;;;;65.65;37.95;;;;;;;;;;5037006;28;20018;-68
2022/12/01 08:00:57;;;;;;;61.53;36.95;;;;;;;;;;5043688;28;20017;-67
2022/12/01 08:03:22;;;;;;;77.18;35.72;;;;;;;;;;5040633;28;20349;-68
2022/12/01 08:05:57;;;;;;;64.57;36.70;;;;;;;;;;5037121;28;20403;-68
2022/12/01 08:08:23;;;;;;;53.40;30.73;;;;;;;;;;5055445;28;20025;-68
2022/12/01 08:10:49;;;;;;;56.85;32.60;;;;;;;;;;5042074;28;20021;-68
2022/12/01 08:13:14;;;;;;;51.45;31.88;;;;;;;;;;5046331;28;20019;-68
2022/12/01 08:15:39;;;;;;;53.23;31.87;;;;;;;;;;5045921;28;20025;-68
2022/12/01 08:18:04;;;;;;;54.25;31.65;;;;;;;;;;5050222;28;20289;-67
2022/12/01 08:20:30;;;;;;;55.20;29.25;;;;;;;;;;5049297;28;20048;-68
2022/12/01 08:22:58;;;;;;;51.10;29.08;;;;;;;;;;5049608;28;20017;-67
2022/12/01 08:25:24;;;;;;;53.42;28.85;;;;;;;;;;5048816;28;20029;-68
2022/12/01 08:27:49;;;;;;;43.70;27.35;;;;;;;;;;5057677;28;20016;-68
2022/12/01 08:30:14;;;;;;;42.42;24.70;;;;;;;;;;5054684;28;20021;-68
2022/12/01 08:32:39;;;;;;;47.42;27.63;;;;;;;;;;5052316;28;20063;-67
2022/12/01 08:35:05;;;;;;;47.58;27.00;;;;;;;;;;5051396;28;20025;-68
2022/12/01 08:37:30;;;;;;;48.63;28.02;;;;;;;;;;5047662;28;20100;-67
2022/12/01 08:39:55;;;;;;;39.10;24.90;;;;;;;;;;5052425;28;20471;-68
2022/12/01 08:42:21;;;;;;;48.80;26.70;;;;;;;;;;5059958;28;20095;-68
2022/12/01 08:44:46;;;;;;;36.30;24.90;;;;;;;;;;5035034;28;20029;-68
2022/12/01 08:47:11;;;;;;;42.75;25.27;;;;;;;;;;5040726;28;20495;-67
2022/12/01 08:49:36;;;;;;;48.10;26.57;;;;;;;;;;5052724;28;20044;-67
2022/12/01 08:52:02;;;;;;;42.55;25.65;;;;;;;;;;5052725;28;20274;-68
2022/12/01 08:54:27;;;;;;;50.95;26.20;;;;;;;;;;5064951;28;20057;-68
2022/12/01 08:56:52;;;;;;;39.97;24.73;;;;;;;;;;5051938;28;20017;-67
2022/12/01 08:59:17;;;;;;;46.80;26.50;;;;;;;;;;5054055;28;20510;-68
2022/12/01 09:01:52;;;;;;;39.00;23.73;;;;;;;;;;5051865;28;20073;-68
2022/12/01 09:04:18;;;;;;;39.35;24.85;;;;;;;;;;5058240;28;20036;-67
2022/12/01 09:06:45;;;;;;;38.85;24.08;;;;;;;;;;5054483;28;20017;-67
2022/12/01 09:09:12;;;;;;;36.80;23.23;;;;;;;;;;5068130;28;20024;-67
2022/12/01 09:11:37;;;;;;;47.10;24.38;;;;;;;;;;5044040;28;20392;-67
2022/12/01 09:14:02;;;;;;;35.40;23.13;;;;;;;;;;5035475;28;20013;-67
2022/12/01 09:16:28;;;;;;;34.22;22.85;;;;;;;;;;5044700;28;20108;-68
2022/12/01 09:18:53;;;;;;;33.28;22.10;;;;;;;;;;5038054;28;20024;-68
2022/12/01 09:21:20;;;;;;;31.83;22.13;;;;;;;;;;5034668;28;20025;-68
2022/12/01 09:23:45;;;;;;;31.10;20.70;;;;;;;;;;5035300;28;20024;-68
2022/12/01 09:26:11;;;;;;;34.72;20.67;;;;;;;;;;5026987;28;20108;-68
2022/12/01 09:28:36;;;;;;;31.30;21.42;;;;;;;;;;5023017;28;20029;-68
2022/12/01 09:31:02;;;;;;;30.58;21.00;;;;;;;;;;5036523;28;20100;-68
2022/12/01 09:33:28;;;;;;;38.60;21.95;;;;;;;;;;5051299;28;20105;-67
2022/12/01 09:35:56;;;;;;;28.60;19.63;;;;;;;;;;5058434;28;20048;-67
2022/12/01 09:38:21;;;;;;;31.08;19.95;;;;;;;;;;5047859;28;20283;-68
2022/12/01 09:40:47;;;;;;;31.10;20.70;;;;;;;;;;5049129;28;20033;-68
2022/12/01 09:43:15;;;;;;;32.42;19.92;;;;;;;;;;5036337;28;20018;-67
2022/12/01 09:45:44;;;;;;;32.88;20.95;;;;;;;;;;5035526;28;20487;-68
2022/12/01 09:48:15;;;;;;;26.98;19.42;;;;;;;;;;5035895;28;20036;-67
2022/12/01 09:50:42;;;;;;;30.45;21.15;;;;;;;;;;5010761;28;20867;-68
2022/12/01 09:53:07;;;;;;;33.50;20.42;;;;;;;;;;5008874;28;20021;-68
2022/12/01 09:55:33;;;;;;;33.60;21.98;;;;;;;;;;5009589;28;20078;-68
2022/12/01 09:58:00;;;;;;;31.27;21.50;;;;;;;;;;5010311;28;20022;-68
2022/12/01 10:00:26;;;;;;;36.88;22.10;;;;;;;;;;5007066;28;20096;-68
2022/12/01 10:02:51;;;;;;;31.83;20.80;;;;;;;;;;5010848;28;20043;-68
2022/12/01 10:05:18;;;;;;;31.77;20.95;;;;;;;;;;5016354;28;20983;-68
2022/12/01 10:07:47;;;;;;;33.13;21.98;;;;;;;;;;5014050;28;20033;-68
2022/12/01 10:10:36;;;;;;;40.42;24.60;;;;;;;;;;5017242;28;20014;-68
2022/12/01 10:13:01;;;;;;;42.05;26.67;;;;;;;;;;5038177;28;20558;-67
2022/12/01 10:15:34;;;;;;;43.55;27.50;;;;;;;;;;5035019;28;20009;-68
2022/12/01 10:18:08;;;;;;;46.40;27.55;;;;;;;;;;5035508;28;20353;-68
2022/12/01 10:20:40;;;;;;;36.80;25.10;;;;;;;;;;5041009;28;20490;-68
2022/12/01 10:23:14;;;;;;;39.17;25.48;;;;;;;;;;5036200;28;20056;-68
2022/12/01 10:25:58;;;;;;;37.65;24.88;;;;;;;;;;5035471;28;20033;-68
2022/12/01 10:28:23;;;;;;;;;;;;;;;;;;5037827;28;20021;-68
2022/12/01 10:30:50;;;;;;;38.70;26.52;;;;;;;;;;5035020;28;19909;-68
2022/12/01 10:33:23;;;;;;;46.60;27.92;;;;;;;;;;5035076;28;20052;-68
2022/12/01 10:35:48;;;;;;;48.17;29.45;;;;;;;;;;5036202;28;20468;-67
2022/12/01 10:38:19;;;;;;;48.67;33.55;;;;;;;;;;5035720;28;20040;-68
2022/12/01 10:40:45;;;;;;;52.38;34.03;;;;;;;;;;5035986;28;20435;-68
2022/12/01 10:43:10;;;;;;;49.15;32.47;;;;;;;;;;5036377;28;20021;-68
2022/12/01 10:45:39;;;;;;;41.95;29.08;;;;;;;;;;5033513;28;20382;-68
2022/12/01 10:48:15;;;;;;;43.00;28.23;;;;;;;;;;5033465;28;20025;-67
2022/12/01 10:50:45;;;;;;;40.10;27.48;;;;;;;;;;5033894;28;20044;-67
2022/12/01 10:53:22;;;;;;;34.72;25.77;;;;;;;;;;5033354;28;20036;-67
2022/12/01 10:55:57;;;;;;;38.38;26.10;;;;;;;;;;5037586;28;20012;-67
2022/12/01 10:58:22;;;;;;;38.47;25.67;;;;;;;;;;5041556;28;20025;-67
2022/12/01 11:00:55;;;;;;;39.78;28.27;;;;;;;;;;5034316;28;20361;-67
2022/12/01 11:03:22;;;;;;;37.25;25.77;;;;;;;;;;5045595;28;20044;-67
2022/12/01 11:05:52;;;;;;;38.47;27.55;;;;;;;;;;5064802;28;20048;-67
2022/12/01 11:08:30;;;;;;;36.42;28.45;;;;;;;;;;5069403;28;20031;-67
2022/12/01 11:10:56;;;;;;;37.67;26.67;;;;;;;;;;5053409;28;20028;-66
2022/12/01 11:13:22;;;;;;;40.60;29.60;;;;;;;;;;5051622;28;20024;-67
2022/12/01 11:15:56;;;;;;;38.42;29.23;;;;;;;;;;5035972;28;20022;-66
2022/12/01 11:18:30;;;;;;;44.17;29.73;;;;;;;;;;5044768;28;20454;-66
2022/12/01 11:21:14;;;;;;;42.13;28.60;;;;;;;;;;5031034;28;20025;-67
2022/12/01 11:23:47;;;;;;;41.10;29.20;;;;;;;;;;5047325;28;20025;-67
2022/12/01 11:26:19;;;;;;;46.33;30.80;;;;;;;;;;5052309;28;20059;-67
2022/12/01 11:29:02;;;;;;;47.28;31.80;;;;;;;;;;5051687;28;20025;-67
2022/12/01 11:31:36;;;;;;;41.40;31.27;;;;;;;;;;5052045;28;20025;-67
2022/12/01 11:34:01;;;;;;;;;;;;;;;;;;5051091;28;20032;-67
2022/12/01 11:36:29;;;;;;;47.55;33.95;;;;;;;;;;5050821;28;19904;-67
2022/12/01 11:38:56;;;;;;;47.42;33.50;;;;;;;;;;5060197;28;20063;-67
2022/12/01 11:41:33;;;;;;;51.00;34.05;;;;;;;;;;5062700;28;20039;-67
2022/12/01 11:43:59;;;;;;;56.58;35.78;;;;;;;;;;5062829;28;20021;-66
2022/12/01 11:46:30;;;;;;;47.95;33.05;;;;;;;;;;5051613;28;20031;-66
2022/12/01 11:48:56;;;;;;;41.15;30.45;;;;;;;;;;5052403;28;20422;-67
2022/12/01 11:51:36;;;;;;;47.40;32.63;;;;;;;;;;5053856;28;20027;-67
2022/12/01 11:54:06;;;;;;;44.20;30.13;;;;;;;;;;5056590;28;20337;-67
2022/12/01 11:56:31;;;;;;;44.63;29.38;;;;;;;;;;5064429;28;20434;-67
2022/12/01 11:59:01;;;;;;;42.05;28.50;;;;;;;;;;5047747;28;20013;-67
2022/12/01 12:01:27;;;;;;;47.15;31.73;;;;;;;;;;5043087;28;20021;-67
2022/12/01 12:04:04;;;;;;;38.43;29.77;;;;;;;;;;5048471;28;20025;-67
2022/12/01 12:07:01;;;;;;;45.60;29.77;;;;;;;;;;5055806;28;20272;-66
2022/12/01 12:09:35;;;;;;;44.10;31.05;;;;;;;;;;5061954;28;20032;-67
2022/12/01 12:12:07;;;;;;;44.55;32.05;;;;;;;;;;5039530;28;20939;-67
2022/12/01 12:14:32;;;;;;;47.50;32.03;;;;;;;;;;5034533;28;20406;-66
2022/12/01 12:17:19;;;;;;;53.33;32.97;;;;;;;;;;5049442;28;20095;-67
2022/12/01 12:19:53;;;;;;;49.25;29.83;;;;;;;;;;5021808;28;20272;-68
2022/12/01 12:22:18;;;;;;;45.97;30.95;;;;;;;;;;5035512;28;20025;-67
2022/12/01 12:24:47;;;;;;;53.70;33.23;;;;;;;;;;5054724;28;20035;-67
2022/12/01 12:27:24;;;;;;;52.08;34.22;;;;;;;;;;5042074;28;20367;-67
2022/12/01 12:30:08;;;;;;;57.03;34.95;;;;;;;;;;5054654;28;20387;-67
2022/12/01 12:32:59;;;;;;;60.20;36.93;;;;;;;;;;5034193;28;20428;-67
2022/12/01 12:35:40;;;;;;;50.53;32.53;;;;;;;;;;5046891;28;20036;-67
2022/12/01 12:38:24;;;;;;;54.47;34.83;;;;;;;;;;5044804;28;20025;-67
2022/12/01 12:40:52;;;;;;;53.65;33.95;;;;;;;;;;5042621;28;20021;-67
2022/12/01 12:43:40;;;;;;;51.55;33.33;;;;;;;;;;5054147;28;20096;-67
2022/12/01 12:46:12;;;;;;;50.10;33.15;;;;;;;;;;5048361;28;20144;-67
2022/12/01 12:48:50;;;;;;;57.90;34.38;;;;;;;;;;5043503;28;20109;-67
2022/12/01 12:51:15;;;;;;;53.90;36.30;;;;;;;;;;5035658;28;20032;-67
2022/12/01 12:53:44;;;;;;;47.00;34.43;;;;;;;;;;5056484;28;20025;-67
2022/12/01 12:56:12;;;;;;;59.63;36.85;;;;;;;;;;5038386;28;20271;-67
2022/12/01 12:58:40;;;;;;;52.50;34.05;;;;;;;;;;5042694;28;20017;-67
2022/12/01 13:01:09;;;;;;;49.05;34.88;;;;;;;;;;5039770;28;20021;-67
2022/12/01 13:03:41;;;;;;;49.15;34.20;;;;;;;;;;5045301;28;20096;-67
2022/12/01 13:06:12;;;;;;;49.60;32.45;;;;;;;;;;5047215;28;20018;-67
2022/12/01 13:08:40;;;;;;;52.35;32.75;;;;;;;;;;5039285;28;20036;-68
2022/12/01 13:11:09;;;;;;;45.53;33.13;;;;;;;;;;5038330;28;20021;-67
2022/12/01 13:13:34;;;;;;;43.75;32.67;;;;;;;;;;5039599;28;20490;-67
2022/12/01 13:16:01;;;;;;;46.33;33.03;;;;;;;;;;5035002;28;20021;-67
2022/12/01 13:18:26;;;;;;;47.13;33.10;;;;;;;;;;5037310;28;20276;-67
2022/12/01 13:20:53;;;;;;;45.90;32.50;;;;;;;;;;5037860;28;20084;-67
2022/12/01 13:23:20;;;;;;;47.78;30.50;;;;;;;;;;5035659;28;20017;-67
2022/12/01 13:25:48;;;;;;;50.83;32.55;;;;;;;;;;5037724;28;20063;-67
2022/12/01 13:28:19;;;;;;;49.55;34.38;;;;;;;;;;5042455;28;20017;-67
2022/12/01 13:31:03;;;;;;;58.95;35.60;;;;;;;;;;5032889;28;20025;-67
2022/12/01 13:33:29;;;;;;;50.72;33.17;;;;;;;;;;5037391;28;20028;-67
2022/12/01 13:35:55;;;;;;;47.95;33.42;;;;;;;;;;5042248;28;20013;-66
2022/12/01 13:38:30;;;;;;;51.67;34.28;;;;;;;;;;5040897;28;20655;-67
2022/12/01 13:41:19;;;;;;;52.60;34.42;;;;;;;;;;5044184;28;20021;-67
2022/12/01 13:43:48;;;;;;;49.63;34.65;;;;;;;;;;5046116;28;20090;-67
2022/12/01 13:46:19;;;;;;;51.72;34.22;;;;;;;;;;5045614;28;20036;-67
2022/12/01 13:48:45;;;;;;;43.28;32.05;;;;;;;;;;5034842;28;20040;-68
2022/12/01 13:51:10;;;;;;;57.87;35.57;;;;;;;;;;5038692;28;20486;-67
2022/12/01 13:53:36;;;;;;;44.97;32.40;;;;;;;;;;5040821;28;20279;-68
2022/12/01 13:56:01;;;;;;;55.88;34.90;;;;;;;;;;5034019;28;20597;-67
2022/12/01 13:58:32;;;;;;;49.45;33.15;;;;;;;;;;5049540;28;20016;-67
2022/12/01 14:01:18;;;;;;;53.80;34.40;;;;;;;;;;5038725;28;20057;-67
2022/12/01 14:03:50;;;;;;;51.97;34.88;;;;;;;;;;5036631;28;20041;-67
2022/12/01 14:06:34;;;;;;;54.53;34.25;;;;;;;;;;5034832;28;20068;-67
2022/12/01 14:09:03;;;;;;;54.15;34.03;;;;;;;;;;5062289;28;20071;-67
2022/12/01 14:11:30;;;;;;;48.45;30.75;;;;;;;;;;5052670;28;20049;-66
2022/12/01 14:14:15;;;;;;;46.10;32.50;;;;;;;;;;5024624;28;20140;-67
2022/12/01 14:16:48;;;;;;;54.25;33.53;;;;;;;;;;4982042;28;20029;-67
2022/12/01 14:19:52;;;;;;;50.67;30.88;;;;;;;;;;5008605;28;20086;-67
2022/12/01 14:22:31;;;;;;;44.40;30.67;;;;;;;;;;5021320;28;20026;-67
2022/12/01 14:24:56;;;;;;;48.75;29.75;;;;;;;;;;5030255;28;20136;-67
2022/12/01 14:27:38;;;;;;;45.10;31.48;;;;;;;;;;5042681;28;20124;-66